createdAt,value
2019-03-31T00:01:47.371Z,5.20
2019-03-31T00:04:15.100Z,5.23
2019-03-31T00:06:42.678Z,5.26
2019-03-31T00:09:10.290Z,5.30
2019-03-31T00:11:37.915Z,5.33
2019-03-31T00:14:05.586Z,5.37
2019-03-31T00:16:33.213Z,5.38
2019-03-31T00:19:00.814Z,5.40
2019-03-31T00:21:28.431Z,5.44
2019-03-31T00:23:56.029Z,5.43
2019-03-31T00:26:23.649Z,5.44
2019-03-31T00:28:51.258Z,5.45
2019-03-31T00:31:22.306Z,5.44
2019-03-31T00:33:51.403Z,5.48
2019-03-31T00:36:21.566Z,5.48
2019-03-31T00:38:49.272Z,5.46
2019-03-31T00:41:20.079Z,5.45
2019-03-31T00:43:47.704Z,5.45
2019-03-31T00:46:15.305Z,5.45
2019-03-31T00:48:45.190Z,5.43
2019-03-31T00:51:12.789Z,5.42
2019-03-31T00:53:40.388Z,5.42
2019-03-31T00:56:08.105Z,5.43
2019-03-31T00:58:38.475Z,5.43
2019-03-31T01:01:35.654Z,5.48
2019-03-31T01:03:54.947Z,5.42
2019-03-31T01:06:23.005Z,5.41
2019-03-31T01:08:50.729Z,5.42
2019-03-31T01:11:23.371Z,5.42
2019-03-31T01:13:51.077Z,5.40
2019-03-31T01:16:18.694Z,5.39
2019-03-31T01:18:46.506Z,5.38
2019-03-31T01:21:14.250Z,5.36
2019-03-31T01:23:42.162Z,5.36
2019-03-31T01:26:10.007Z,5.37
2019-03-31T01:28:37.639Z,5.34
2019-03-31T01:31:05.237Z,5.36
2019-03-31T01:33:33.045Z,5.32
2019-03-31T01:36:00.668Z,5.33
2019-03-31T01:38:28.336Z,5.32
2019-03-31T01:40:55.935Z,5.32
2019-03-31T01:43:23.536Z,5.31
2019-03-31T01:45:51.175Z,5.30
2019-03-31T01:48:18.794Z,5.30
2019-03-31T01:50:46.389Z,5.29
2019-03-31T01:53:14.009Z,5.27
2019-03-31T01:55:41.603Z,5.25
2019-03-31T01:58:09.250Z,5.23
2019-03-31T02:00:39.787Z,5.23
2019-03-31T02:03:07.391Z,5.21
2019-03-31T02:05:35.055Z,5.21
2019-03-31T02:08:02.851Z,5.21
2019-03-31T02:10:30.469Z,5.21
2019-03-31T02:12:58.136Z,5.19
2019-03-31T02:15:25.752Z,5.20
2019-03-31T02:17:53.374Z,5.17
2019-03-31T02:20:21.006Z,5.17
2019-03-31T02:22:48.611Z,5.15
2019-03-31T02:25:16.222Z,5.14
2019-03-31T02:27:43.836Z,5.15
2019-03-31T02:30:11.688Z,5.18
2019-03-31T02:32:41.162Z,5.16
2019-03-31T02:35:08.870Z,5.12
2019-03-31T02:37:36.487Z,5.08
2019-03-31T02:40:05.116Z,5.05
2019-03-31T02:42:32.925Z,5.04
2019-03-31T02:45:00.821Z,4.99
2019-03-31T02:47:28.557Z,4.97
2019-03-31T02:52:21.509Z,4.91
2019-03-31T02:54:49.161Z,4.82
2019-03-31T02:57:20.163Z,4.76
2019-03-31T02:59:50.589Z,4.69
2019-03-31T03:02:19.256Z,4.63
2019-03-31T03:04:48.186Z,4.58
2019-03-31T03:07:17.360Z,4.53
2019-03-31T03:09:47.103Z,4.48
2019-03-31T03:12:17.107Z,4.44
2019-03-31T03:14:47.123Z,4.39
2019-03-31T03:17:14.719Z,4.34
2019-03-31T03:19:42.341Z,4.27
2019-03-31T03:22:09.951Z,4.23
2019-03-31T03:24:37.563Z,4.21
2019-03-31T03:27:05.149Z,4.17
2019-03-31T03:29:32.833Z,4.15
2019-03-31T03:32:00.458Z,4.14
2019-03-31T03:34:28.088Z,4.13
2019-03-31T03:36:55.989Z,4.11
2019-03-31T03:39:23.592Z,4.11
2019-03-31T03:41:51.435Z,4.10
2019-03-31T03:44:19.121Z,4.10
2019-03-31T03:46:46.751Z,4.10
2019-03-31T03:49:14.736Z,4.10
2019-03-31T03:51:42.392Z,4.12
2019-03-31T03:54:10.023Z,4.15
2019-03-31T03:56:37.631Z,4.15
2019-03-31T03:59:05.250Z,4.14
2019-03-31T04:01:32.879Z,4.15
2019-03-31T04:04:00.508Z,4.13
2019-03-31T04:06:28.120Z,4.11
2019-03-31T04:08:55.753Z,4.11
2019-03-31T04:11:28.682Z,4.09
2019-03-31T04:13:56.596Z,4.06
2019-03-31T04:16:24.413Z,4.04
2019-03-31T04:18:52.053Z,4.04
2019-03-31T04:21:19.669Z,4.06
2019-03-31T04:23:48.771Z,4.03
2019-03-31T04:26:16.370Z,4.03
2019-03-31T04:28:43.971Z,4.03
2019-03-31T04:31:11.580Z,4.04
2019-03-31T04:33:50.611Z,4.04
2019-03-31T04:36:08.705Z,4.03
2019-03-31T04:38:36.302Z,4.05
2019-03-31T04:41:03.939Z,4.03
2019-03-31T04:43:31.546Z,4.05
2019-03-31T04:45:59.151Z,4.11
2019-03-31T04:48:26.751Z,4.11
2019-03-31T04:50:54.384Z,4.14
2019-03-31T04:53:21.986Z,4.15
2019-03-31T04:55:49.596Z,4.13
2019-03-31T04:58:17.198Z,4.17
2019-03-31T05:00:44.802Z,4.11
2019-03-31T05:03:12.397Z,4.09
2019-03-31T05:05:40.007Z,4.06
2019-03-31T05:08:07.610Z,4.07
2019-03-31T05:10:35.240Z,4.10
2019-03-31T05:13:02.832Z,4.09
2019-03-31T05:15:30.441Z,4.08
2019-03-31T05:17:58.053Z,4.02
2019-03-31T05:20:25.656Z,3.94
2019-03-31T05:22:53.300Z,3.95
2019-03-31T05:25:20.975Z,3.98
2019-03-31T05:27:48.575Z,4.00
2019-03-31T05:30:16.187Z,3.94
2019-03-31T05:32:43.793Z,3.89
2019-03-31T05:35:11.398Z,3.86
2019-03-31T05:37:50.391Z,3.85
2019-03-31T05:40:08.905Z,3.82
2019-03-31T05:42:36.529Z,3.84
2019-03-31T05:45:04.496Z,3.84
2019-03-31T05:47:32.097Z,3.87
2019-03-31T05:49:59.704Z,3.92
2019-03-31T05:52:27.301Z,3.90
2019-03-31T05:54:54.911Z,3.95
2019-03-31T05:57:22.535Z,4.02
2019-03-31T05:59:50.192Z,4.02
2019-03-31T06:02:17.802Z,4.10
2019-03-31T06:04:45.406Z,4.20
2019-03-31T06:07:13.017Z,4.12
2019-03-31T06:09:40.621Z,4.13
2019-03-31T06:12:08.240Z,4.08
2019-03-31T06:14:35.849Z,4.08
2019-03-31T06:17:03.471Z,4.04
2019-03-31T06:19:31.065Z,4.08
2019-03-31T06:21:58.686Z,4.15
2019-03-31T06:24:26.285Z,4.23
2019-03-31T06:26:53.958Z,4.32
2019-03-31T06:29:21.609Z,4.38
2019-03-31T06:31:49.230Z,4.41
2019-03-31T06:34:16.842Z,4.40
2019-03-31T06:36:44.449Z,4.39
2019-03-31T06:39:12.064Z,4.40
2019-03-31T06:41:39.730Z,4.37
2019-03-31T06:44:07.395Z,4.34
2019-03-31T06:46:35.018Z,4.36
2019-03-31T06:49:02.638Z,4.20
2019-03-31T06:51:30.249Z,4.01
2019-03-31T06:53:57.862Z,3.84
2019-03-31T06:56:25.463Z,3.67
2019-03-31T06:58:53.099Z,3.57
2019-03-31T07:01:20.733Z,3.46
2019-03-31T07:03:48.356Z,3.39
2019-03-31T07:06:15.963Z,3.31
2019-03-31T07:08:43.666Z,3.28
2019-03-31T07:11:36.911Z,3.26
2019-03-31T07:14:10.353Z,3.27
2019-03-31T07:16:43.621Z,3.33
2019-03-31T07:19:18.710Z,3.39
2019-03-31T07:21:53.158Z,3.50
2019-03-31T07:24:20.766Z,3.64
2019-03-31T07:26:48.410Z,3.75
2019-03-31T07:29:16.566Z,3.86
2019-03-31T07:31:44.289Z,3.87
2019-03-31T07:34:11.940Z,3.92
2019-03-31T07:36:39.582Z,3.99
2019-03-31T07:39:07.337Z,4.05
2019-03-31T07:41:36.212Z,4.14
2019-03-31T07:44:04.035Z,4.20
2019-03-31T07:46:31.748Z,4.23
2019-03-31T07:48:59.808Z,4.26
2019-03-31T07:51:27.429Z,4.28
2019-03-31T07:53:55.163Z,4.31
2019-03-31T07:56:22.794Z,4.35
2019-03-31T07:58:50.585Z,4.31
2019-03-31T08:01:18.205Z,4.32
2019-03-31T08:03:45.839Z,4.37
2019-03-31T08:06:14.603Z,4.27
2019-03-31T08:08:42.935Z,4.33
2019-03-31T08:11:10.641Z,4.48
2019-03-31T08:13:38.233Z,4.58
2019-03-31T08:16:05.858Z,4.59
2019-03-31T08:18:33.504Z,4.57
2019-03-31T08:21:01.298Z,4.50
2019-03-31T08:23:30.183Z,4.45
2019-03-31T08:25:57.866Z,4.44
2019-03-31T08:28:25.489Z,4.44
2019-03-31T08:30:53.626Z,4.53
2019-03-31T08:33:21.275Z,4.54
2019-03-31T08:35:48.970Z,4.58
2019-03-31T08:38:16.745Z,4.59
2019-03-31T08:40:44.362Z,4.63
2019-03-31T08:43:11.993Z,4.62
2019-03-31T08:45:39.625Z,4.78
2019-03-31T08:48:07.263Z,5.00
2019-03-31T08:50:35.108Z,5.53
2019-03-31T08:53:02.842Z,5.98
2019-03-31T08:55:32.268Z,5.59
2019-03-31T08:58:00.080Z,5.32
2019-03-31T09:00:35.757Z,5.14
2019-03-31T09:03:03.601Z,4.98
2019-03-31T09:05:33.162Z,4.89
2019-03-31T09:08:02.664Z,4.92
2019-03-31T09:10:30.406Z,4.89
2019-03-31T09:12:58.020Z,5.00
2019-03-31T09:15:26.897Z,5.01
2019-03-31T09:17:54.632Z,5.12
2019-03-31T09:20:22.219Z,5.29
2019-03-31T09:22:49.886Z,5.12
2019-03-31T09:25:17.497Z,4.75
2019-03-31T09:27:45.114Z,4.73
2019-03-31T09:30:14.756Z,4.71
2019-03-31T09:32:42.379Z,4.89
2019-03-31T09:35:10.518Z,4.95
2019-03-31T09:38:31.892Z,5.24
2019-03-31T09:41:21.174Z,5.11
2019-03-31T09:43:48.787Z,5.50
2019-03-31T09:46:17.537Z,5.50
2019-03-31T09:48:45.258Z,5.18
2019-03-31T09:51:12.927Z,4.95
2019-03-31T09:53:42.404Z,4.97
2019-03-31T09:56:10.159Z,5.22
2019-03-31T09:58:37.938Z,5.47
2019-03-31T10:01:08.018Z,5.61
2019-03-31T10:03:35.130Z,5.61
2019-03-31T10:06:10.639Z,5.44
2019-03-31T10:08:32.923Z,5.26
2019-03-31T10:11:02.876Z,5.45
2019-03-31T10:13:30.186Z,5.53
2019-03-31T10:16:00.221Z,5.48
2019-03-31T10:18:27.890Z,5.68
2019-03-31T10:20:55.509Z,5.83
2019-03-31T10:23:23.166Z,5.88
2019-03-31T10:25:50.939Z,5.82
2019-03-31T10:28:18.646Z,6.04
2019-03-31T10:30:46.266Z,6.35
2019-03-31T10:33:13.911Z,6.51
2019-03-31T10:35:43.350Z,6.58
2019-03-31T10:38:10.999Z,6.48
2019-03-31T10:40:38.652Z,6.41
2019-03-31T10:43:06.268Z,6.63
2019-03-31T10:45:33.887Z,6.77
2019-03-31T10:48:01.500Z,6.80
2019-03-31T10:50:29.261Z,6.99
2019-03-31T10:52:56.931Z,6.81
2019-03-31T10:55:24.728Z,6.83
2019-03-31T10:57:52.422Z,6.73
2019-03-31T11:00:31.547Z,6.84
2019-03-31T11:02:59.310Z,7.04
2019-03-31T11:05:26.971Z,6.81
2019-03-31T11:07:54.627Z,6.68
2019-03-31T11:10:22.290Z,6.95
2019-03-31T11:12:50.920Z,7.16
2019-03-31T11:15:18.854Z,6.93
2019-03-31T11:17:46.670Z,6.75
2019-03-31T11:20:14.366Z,6.87
2019-03-31T11:22:50.901Z,6.95
2019-03-31T11:25:22.104Z,6.87
2019-03-31T11:27:48.111Z,7.11
2019-03-31T11:30:16.588Z,7.47
2019-03-31T11:32:44.224Z,7.78
2019-03-31T11:35:13.937Z,8.08
2019-03-31T11:37:41.811Z,8.25
2019-03-31T11:40:09.963Z,8.46
2019-03-31T11:42:37.575Z,8.25
2019-03-31T11:45:06.016Z,7.84
2019-03-31T11:47:33.749Z,7.65
2019-03-31T11:50:05.611Z,7.67
2019-03-31T11:52:33.270Z,7.57
2019-03-31T11:55:00.936Z,7.63
2019-03-31T11:57:28.567Z,7.42
2019-03-31T11:59:56.228Z,7.46
2019-03-31T12:02:27.194Z,7.60
2019-03-31T12:04:54.523Z,7.65
2019-03-31T12:07:28.390Z,7.49
2019-03-31T12:09:51.697Z,7.33
2019-03-31T12:12:19.368Z,7.50
2019-03-31T12:14:59.779Z,7.47
2019-03-31T12:17:16.563Z,7.46
2019-03-31T12:19:44.412Z,7.47
2019-03-31T12:22:12.184Z,7.36
2019-03-31T12:24:39.912Z,7.29
2019-03-31T12:27:07.553Z,7.59
2019-03-31T12:29:35.167Z,7.51
2019-03-31T12:32:02.798Z,7.49
2019-03-31T12:34:30.436Z,7.55
2019-03-31T12:36:58.106Z,7.51
2019-03-31T12:39:25.867Z,7.40
2019-03-31T12:41:53.708Z,7.27
2019-03-31T12:44:21.348Z,7.07
2019-03-31T12:46:56.046Z,7.06
2019-03-31T12:49:22.800Z,7.04
2019-03-31T12:51:50.470Z,7.12
2019-03-31T12:54:18.112Z,7.06
2019-03-31T12:56:45.776Z,7.01
2019-03-31T12:59:17.202Z,6.97
2019-03-31T13:01:44.931Z,6.91
2019-03-31T13:04:12.615Z,6.98
2019-03-31T13:06:40.273Z,7.10
2019-03-31T13:09:08.269Z,7.21
2019-03-31T13:11:35.885Z,7.35
2019-03-31T13:14:03.522Z,7.32
2019-03-31T13:16:31.135Z,7.27
2019-03-31T13:18:58.748Z,7.30
2019-03-31T13:21:26.379Z,7.33
2019-03-31T13:23:54.053Z,7.42
2019-03-31T13:26:23.582Z,7.36
2019-03-31T13:28:53.103Z,7.39
2019-03-31T13:31:20.875Z,7.24
2019-03-31T13:33:48.705Z,7.36
2019-03-31T13:36:16.378Z,7.36
2019-03-31T13:39:23.857Z,7.36
2019-03-31T13:41:51.503Z,7.48
2019-03-31T13:44:19.234Z,7.34
2019-03-31T13:46:46.844Z,7.38
2019-03-31T13:49:14.511Z,7.51
2019-03-31T13:51:42.124Z,7.63
2019-03-31T13:54:09.758Z,7.69
2019-03-31T13:56:37.593Z,7.60
2019-03-31T13:59:05.209Z,7.55
2019-03-31T14:01:32.844Z,7.58
2019-03-31T14:04:03.306Z,7.63
2019-03-31T14:06:31.642Z,7.64
2019-03-31T14:08:59.466Z,7.73
2019-03-31T14:11:27.143Z,7.61
2019-03-31T14:13:56.118Z,7.66
2019-03-31T14:16:24.031Z,7.70
2019-03-31T14:18:51.706Z,7.70
2019-03-31T14:21:19.461Z,7.74
2019-03-31T14:23:47.086Z,7.74
2019-03-31T14:26:14.703Z,7.76
2019-03-31T14:28:42.345Z,7.86
2019-03-31T14:31:10.001Z,7.67
2019-03-31T14:33:37.632Z,7.64
2019-03-31T14:36:05.342Z,7.66
2019-03-31T14:38:40.103Z,7.75
2019-03-31T14:41:02.503Z,7.67
2019-03-31T14:43:30.125Z,7.57
2019-03-31T14:45:57.733Z,7.68
2019-03-31T14:48:25.356Z,7.54
2019-03-31T14:50:52.963Z,7.47
2019-03-31T14:53:20.603Z,7.50
2019-03-31T14:55:48.267Z,7.62
2019-03-31T14:58:15.902Z,7.90
2019-03-31T15:00:43.706Z,7.84
2019-03-31T15:03:11.383Z,7.84
2019-03-31T15:05:56.852Z,7.66
2019-03-31T15:08:24.497Z,7.56
2019-03-31T15:10:52.280Z,7.55
2019-03-31T15:13:20.146Z,7.47
2019-03-31T15:15:47.884Z,7.31
2019-03-31T15:18:17.324Z,7.26
2019-03-31T15:20:46.457Z,7.11
2019-03-31T15:23:14.391Z,7.05
2019-03-31T15:25:43.308Z,6.92
2019-03-31T15:28:11.026Z,6.83
2019-03-31T15:30:38.914Z,6.75
2019-03-31T15:33:06.522Z,6.71
2019-03-31T15:35:37.563Z,6.67
2019-03-31T15:38:03.795Z,6.65
2019-03-31T15:40:31.432Z,6.59
2019-03-31T15:42:59.038Z,6.56
2019-03-31T15:45:26.685Z,6.59
2019-03-31T15:47:54.322Z,6.68
2019-03-31T15:50:21.951Z,6.71
2019-03-31T15:52:49.572Z,6.67
2019-03-31T15:55:17.220Z,6.68
2019-03-31T15:57:44.839Z,6.77
2019-03-31T16:00:15.019Z,6.82
2019-03-31T16:02:42.605Z,6.83
2019-03-31T16:05:12.682Z,6.83
2019-03-31T16:07:39.939Z,6.85
2019-03-31T16:10:07.455Z,6.88
2019-03-31T16:12:34.515Z,6.88
2019-03-31T16:15:01.704Z,6.87
2019-03-31T16:17:28.887Z,6.86
2019-03-31T16:19:56.015Z,6.93
2019-03-31T16:22:23.080Z,6.87
2019-03-31T16:24:52.402Z,6.77
2019-03-31T16:27:19.468Z,6.73
2019-03-31T16:29:46.544Z,6.75
2019-03-31T16:32:13.623Z,6.72
2019-03-31T16:34:40.693Z,6.78
2019-03-31T16:37:07.775Z,6.78
2019-03-31T16:39:37.825Z,6.74
2019-03-31T16:42:04.018Z,6.68
2019-03-31T16:44:31.097Z,6.74
2019-03-31T16:46:58.201Z,6.67
2019-03-31T16:49:25.274Z,6.58
2019-03-31T16:51:52.358Z,6.63
2019-03-31T16:54:19.426Z,6.59
2019-03-31T16:56:46.492Z,6.52
2019-03-31T16:59:13.594Z,6.45
2019-03-31T17:01:40.936Z,6.43
2019-03-31T17:04:08.176Z,6.34
2019-03-31T17:06:35.284Z,6.27
2019-03-31T17:09:06.128Z,6.20
2019-03-31T17:11:35.590Z,6.15
2019-03-31T17:14:03.389Z,6.07
2019-03-31T17:16:30.476Z,5.98
2019-03-31T17:18:57.572Z,5.89
2019-03-31T17:21:24.654Z,5.84
2019-03-31T17:23:51.774Z,5.76
2019-03-31T17:26:18.815Z,5.72
2019-03-31T17:28:45.894Z,5.64
2019-03-31T17:31:12.999Z,5.60
2019-03-31T17:33:40.064Z,5.57
2019-03-31T17:36:07.135Z,5.59
2019-03-31T17:38:34.256Z,5.54
2019-03-31T17:41:01.325Z,5.49
2019-03-31T17:43:28.414Z,5.43
2019-03-31T17:45:55.523Z,5.38
2019-03-31T17:48:22.715Z,5.33
2019-03-31T17:50:49.837Z,5.28
2019-03-31T17:53:18.743Z,5.29
2019-03-31T17:55:45.832Z,5.22
2019-03-31T17:58:19.065Z,5.16
2019-03-31T18:00:46.164Z,5.11
2019-03-31T18:03:15.609Z,5.06
2019-03-31T18:05:43.473Z,4.99
2019-03-31T18:08:11.742Z,4.98
2019-03-31T18:10:38.968Z,4.96
2019-03-31T18:13:06.064Z,4.90
2019-03-31T18:15:33.279Z,4.86
2019-03-31T18:18:05.140Z,4.83
2019-03-31T18:20:39.906Z,4.79
2019-03-31T18:23:06.940Z,4.77
2019-03-31T18:25:34.034Z,4.75
2019-03-31T18:28:09.784Z,4.70
2019-03-31T18:30:36.881Z,4.69
2019-03-31T18:33:06.003Z,4.66
2019-03-31T18:35:33.063Z,4.62
2019-03-31T18:38:04.389Z,4.57
2019-03-31T18:40:35.118Z,4.56
2019-03-31T18:43:01.717Z,4.51
2019-03-31T18:45:28.904Z,4.47
2019-03-31T18:47:56.017Z,4.44
2019-03-31T18:50:23.300Z,4.37
2019-03-31T18:52:50.314Z,4.35
2019-03-31T18:55:46.333Z,4.31
2019-03-31T18:58:24.650Z,4.26
2019-03-31T19:01:23.326Z,4.20
2019-03-31T19:04:37.778Z,4.16
2019-03-31T19:07:39.218Z,4.12
2019-03-31T19:10:49.419Z,4.09
2019-03-31T19:13:27.752Z,4.03
2019-03-31T19:16:17.427Z,3.96
2019-03-31T19:19:05.657Z,3.93
2019-03-31T19:21:51.891Z,3.91
2019-03-31T19:24:47.592Z,3.87
2019-03-31T19:27:49.726Z,3.83
2019-03-31T19:30:45.352Z,3.76
2019-03-31T19:33:34.775Z,3.63
2019-03-31T19:36:22.133Z,3.60
2019-03-31T19:39:07.803Z,3.52
2019-03-31T19:42:09.677Z,3.47
2019-03-31T19:44:53.151Z,3.42
2019-03-31T19:47:29.535Z,3.37
2019-03-31T19:50:12.039Z,3.33
2019-03-31T19:52:49.038Z,3.30
2019-03-31T19:56:07.020Z,3.27
2019-03-31T19:58:54.499Z,3.25
2019-03-31T20:01:38.707Z,3.20
2019-03-31T20:04:24.103Z,3.18
2019-03-31T20:06:59.455Z,3.15
2019-03-31T20:09:33.573Z,3.12
2019-03-31T20:12:09.770Z,3.09
2019-03-31T20:14:55.261Z,3.04
2019-03-31T20:17:44.615Z,3.02
2019-03-31T20:20:24.712Z,3.02
2019-03-31T20:23:14.337Z,3.01
2019-03-31T20:25:48.535Z,2.99
2019-03-31T20:28:25.305Z,2.96
2019-03-31T20:31:04.733Z,2.95
2019-03-31T20:33:57.140Z,2.92
2019-03-31T20:36:46.568Z,2.90
2019-03-31T20:39:33.266Z,2.85
2019-03-31T20:42:18.257Z,2.81
2019-03-31T20:44:45.341Z,2.77
2019-03-31T20:47:19.899Z,2.77
2019-03-31T20:49:46.999Z,2.73
2019-03-31T20:52:14.033Z,2.71
2019-03-31T20:54:41.101Z,2.70
2019-03-31T20:57:08.164Z,2.67
2019-03-31T20:59:35.316Z,2.64
2019-03-31T21:02:02.379Z,2.61
2019-03-31T21:04:29.483Z,2.59
2019-03-31T21:06:56.584Z,2.56
2019-03-31T21:09:23.655Z,2.55
2019-03-31T21:11:50.728Z,2.52
2019-03-31T21:14:17.811Z,2.49
2019-03-31T21:16:44.997Z,2.45
2019-03-31T21:19:12.104Z,2.41
2019-03-31T21:21:39.163Z,2.37
2019-03-31T21:24:06.218Z,2.32
2019-03-31T21:26:33.292Z,2.27
2019-03-31T21:29:00.359Z,2.25
2019-03-31T21:31:27.475Z,2.23
2019-03-31T21:33:54.538Z,2.22
2019-03-31T21:36:21.671Z,2.20
2019-03-31T21:38:48.772Z,2.16
2019-03-31T21:41:15.815Z,2.14
2019-03-31T21:43:42.880Z,2.09
2019-03-31T21:46:09.974Z,2.08
2019-03-31T21:48:37.244Z,2.06
2019-03-31T21:51:04.324Z,2.04
2019-03-31T21:53:33.296Z,2.03
2019-03-31T21:56:00.746Z,2.01
2019-03-31T21:58:27.806Z,1.99
2019-03-31T22:00:57.609Z,1.98
2019-03-31T22:03:24.673Z,1.98
2019-03-31T22:05:51.747Z,1.96
2019-03-31T22:08:20.631Z,1.94
2019-03-31T22:10:47.927Z,1.92
2019-03-31T22:13:14.998Z,1.88
2019-03-31T22:15:42.091Z,1.88
2019-03-31T22:18:10.448Z,1.87
2019-03-31T22:20:37.503Z,1.88
2019-03-31T22:23:04.587Z,1.88
2019-03-31T22:25:31.694Z,1.87
2019-03-31T22:27:58.786Z,1.86
2019-03-31T22:30:26.086Z,1.84
2019-03-31T22:32:53.279Z,1.84
2019-03-31T22:35:21.708Z,1.83
2019-03-31T22:37:48.843Z,1.80
2019-03-31T22:40:17.168Z,1.77
2019-03-31T22:42:44.205Z,1.74
2019-03-31T22:45:11.416Z,1.75
2019-03-31T22:47:38.483Z,1.75
2019-03-31T22:50:05.683Z,1.76
2019-03-31T22:52:32.763Z,1.76
2019-03-31T22:54:59.840Z,1.75
2019-03-31T22:57:26.906Z,1.74
2019-03-31T22:59:53.987Z,1.72
2019-03-31T23:02:21.064Z,1.70
2019-03-31T23:04:48.142Z,1.70
2019-03-31T23:07:15.259Z,1.68
2019-03-31T23:09:42.329Z,1.66
2019-03-31T23:12:09.394Z,1.65
2019-03-31T23:14:36.471Z,1.63
2019-03-31T23:17:03.767Z,1.62
2019-03-31T23:19:31.040Z,1.62
2019-03-31T23:21:58.108Z,1.57
2019-03-31T23:24:25.172Z,1.55
2019-03-31T23:26:54.294Z,1.52
2019-03-31T23:29:21.378Z,1.49
2019-03-31T23:31:48.468Z,1.43
2019-03-31T23:34:15.545Z,1.39
2019-03-31T23:36:42.606Z,1.35
2019-03-31T23:39:09.723Z,1.32
2019-03-31T23:41:36.784Z,1.31
2019-03-31T23:44:06.641Z,1.27
2019-03-31T23:46:33.837Z,1.24
2019-03-31T23:49:00.916Z,1.21
2019-03-31T23:51:27.978Z,1.19
2019-03-31T23:53:58.182Z,1.16
2019-03-31T23:56:25.220Z,1.09
2019-03-31T23:58:52.285Z,1.07
